Webcam 1 more information Webcam 1


Webcam 2 more information Webcam 2


altri nostri siti meteo:

Pomeziameteo 1Sito sul meteo

Pomeziameteo DashboardSito sul meteo

Caput FrigorisSito sul meteo

BarcellonameteoSito sul meteo

MeteoipassiSito sul meteo

ViterbometeoSito sul meteo

MeteotortoretoSito sul meteo

Stazione LineameteoSito sul meteo



Nessuna attenzione particolare richiesta.    Non ci sono allerte meteo

Weather Underground Storia pagina Testo

Quotidiano Riepilogo per Marzo 25, 2019 Unita:  Metrico    Inglese   Entrambi
« Indietro Day
Avanti Day »
Quotidiano Settimanale mensile Annuale Personalizzato
  Attuale: Max: Min: Media:
Temperatura: -12.6 °C -17.8 °C -13 °C -9.8 °C
P.to Rugiada: -21.2 °C -17.8 °C -23.7 °C -22.1 °C
Umidita: 33 % Humidity % 14 % 22 %
Vel. Vento: 12.9 km/h 0 km/h 0 km/h 10.8 km/h
Raffiche: 18.2 km/h 0 km/h - -
Vento:NW - - South
Pressione: 34073.3 hPa 0 hPa 34049.6 hPa -
Precipitazioni: 0 mm      
Historical Graphs
 
 
Dati di tabella per il Marzo 25, 2019
Tempo Temperatura P.to Rugiada Pressione Vento Vel. Vento Raffiche Umidita Tasso delle precipitazioni (oraria)
-17.8 °C -17.8 °C 0 hPa Calm     Humidity % 0 mm
00:00 -12.7 °C -21.7 °C 34384.8 hPa WSW 12.9 km/h 18.2 km/h 31 % 0 mm
00:05 -12.7 °C -21.6 °C 34384.8 hPa West 12.9 km/h 15.6 km/h 32 % 0 mm
00:10 -12.8 °C -21.3 °C 34384.8 hPa West 12.9 km/h 18.2 km/h 33 % 0 mm
00:15 -12.7 °C -21.6 °C 34384.8 hPa West 10.3 km/h 15.6 km/h 32 % 0 mm
00:20 -12.8 °C -21.6 °C 34384.8 hPa West 12.9 km/h 15.6 km/h 32 % 0 mm
00:25 -12.8 °C -21.2 °C 34384.8 hPa NW 10.3 km/h 18.2 km/h 34 % 0 mm
00:30 -12.8 °C -21.2 °C 34384.8 hPa WNW 10.3 km/h 20.8 km/h 34 % 0 mm
00:35 -12.7 °C -21.3 °C 34384.8 hPa West 12.9 km/h 20.8 km/h 33 % 0 mm
00:40 -12.6 °C -21.7 °C 34384.8 hPa WSW 12.9 km/h 18.2 km/h 31 % 0 mm
00:45 -12.6 °C -21.6 °C 34384.8 hPa WSW 12.9 km/h 20.8 km/h 31 % 0 mm
00:50 -12.7 °C -21.7 °C 34384.8 hPa WNW 7.7 km/h 12.9 km/h 31 % 0 mm
00:55 -12.8 °C -21.6 °C 34384.8 hPa NW 7.7 km/h 12.9 km/h 32 % 0 mm
01:00 -12.9 °C -21 °C 34384.8 hPa West 10.3 km/h 15.6 km/h 35 % 0 mm
01:05 -12.8 °C -21.3 °C 34384.8 hPa West 10.3 km/h 12.9 km/h 33 % 0 mm
01:10 -12.7 °C -21.3 °C 34384.8 hPa West 10.3 km/h 20.8 km/h 33 % 0 mm
01:15 -12.7 °C -21.5 °C 34384.8 hPa WNW 15.6 km/h 20.8 km/h 32 % 0 mm
01:20 -12.6 °C -21.6 °C 34384.8 hPa WSW 10.3 km/h 15.6 km/h 31 % 0 mm
01:25 -12.6 °C -21.8 °C 34384.8 hPa WSW 5.1 km/h 12.9 km/h 30 % 0 mm
01:30 -12.6 °C -21.9 °C 34384.8 hPa West 10.3 km/h 18.2 km/h 30 % 0 mm
01:35 -12.6 °C -21.9 °C 34347.6 hPa West 15.6 km/h 20.8 km/h 30 % 0 mm
01:40 -12.7 °C -21.9 °C 34347.6 hPa West 10.3 km/h 18.2 km/h 30 % 0 mm
01:45 -12.8 °C -21.6 °C 34347.6 hPa WNW 10.3 km/h 12.9 km/h 32 % 0 mm
01:50 -12.9 °C -21.4 °C 34347.6 hPa WSW 7.7 km/h 12.9 km/h 33 % 0 mm
01:55 -12.8 °C -21.6 °C 34347.6 hPa WSW 10.3 km/h 15.6 km/h 32 % 0 mm
02:00 -12.7 °C -21.8 °C 34347.6 hPa West 10.3 km/h 15.6 km/h 31 % 0 mm
02:05 -12.8 °C -21.8 °C 34347.6 hPa West 15.6 km/h 18.2 km/h 31 % 0 mm
02:10 -12.7 °C -21.8 °C 34347.6 hPa WSW 10.3 km/h 15.6 km/h 31 % 0 mm
02:15 -12.8 °C -21.8 °C 34347.6 hPa West 10.3 km/h 20.8 km/h 31 % 0 mm
02:20 -12.7 °C -21.8 °C 34347.6 hPa WSW 7.7 km/h 15.6 km/h 31 % 0 mm
02:25 -12.7 °C -22 °C 34347.6 hPa WSW 10.3 km/h 18.2 km/h 30 % 0 mm
02:30 -12.7 °C -22 °C 34347.6 hPa WSW 10.3 km/h 12.9 km/h 30 % 0 mm
02:35 -12.8 °C -22.1 °C 34347.6 hPa SW 10.3 km/h 12.9 km/h 30 % 0 mm
02:40 -12.8 °C -22.1 °C 34347.6 hPa WSW 5.1 km/h 10.3 km/h 30 % 0 mm
02:45 -12.8 °C -22.1 °C 34347.6 hPa Calm   7.7 km/h 30 % 0 mm
02:50 -12.8 °C -22.1 °C 34347.6 hPa Calm   7.7 km/h 30 % 0 mm
02:55 -12.8 °C -22.1 °C 34347.6 hPa Calm   5.1 km/h 30 % 0 mm
03:00 -12.8 °C -22.1 °C 34347.6 hPa Calm     30 % 0 mm
03:05 -12.8 °C -22.1 °C 34347.6 hPa Calm     30 % 0 mm
03:10 -12.8 °C -22.1 °C 34347.6 hPa WSW 5.1 km/h 10.3 km/h 30 % 0 mm
03:15 -12.7 °C -22 °C 34347.6 hPa West 5.1 km/h 10.3 km/h 30 % 0 mm
03:20 -12.7 °C -22.2 °C 34347.6 hPa West 5.1 km/h 7.7 km/h 29 % 0 mm
03:25 -12.8 °C -22.3 °C 34347.6 hPa West 7.7 km/h 7.7 km/h 29 % 0 mm
03:30 -12.8 °C -22.1 °C 34347.6 hPa West 7.7 km/h 10.3 km/h 30 % 0 mm
03:35 -12.8 °C -22.1 °C 34347.6 hPa West 7.7 km/h 7.7 km/h 30 % 0 mm
03:40 -12.9 °C -22.1 °C 34347.6 hPa West 7.7 km/h 10.3 km/h 30 % 0 mm
03:45 -12.9 °C -22.2 °C 34347.6 hPa WSW 10.3 km/h 12.9 km/h 30 % 0 mm
03:50 -12.9 °C -22.1 °C 34313.7 hPa WSW 7.7 km/h 10.3 km/h 30 % 0 mm
03:55 -12.9 °C -22.2 °C 34313.7 hPa WSW 5.1 km/h 10.3 km/h 30 % 0 mm
04:00 -12.9 °C -22.2 °C 34313.7 hPa West 7.7 km/h 10.3 km/h 30 % 0 mm
04:05 -13 °C -22.2 °C 34313.7 hPa West 7.7 km/h 10.3 km/h 30 % 0 mm
04:10 -13 °C -22.2 °C 34313.7 hPa West 7.7 km/h 10.3 km/h 30 % 0 mm
04:15 -12.9 °C -22.2 °C 34313.7 hPa WSW 10.3 km/h 12.9 km/h 30 % 0 mm
04:20 -12.9 °C -22.1 °C 34313.7 hPa WSW 10.3 km/h 12.9 km/h 30 % 0 mm
04:25 -12.8 °C -22.3 °C 34313.7 hPa WSW 7.7 km/h 15.6 km/h 29 % 0 mm
04:30 -12.7 °C -22.5 °C 34313.7 hPa West 10.3 km/h 12.9 km/h 28 % 0 mm
04:35 -12.7 °C -22.4 °C 34313.7 hPa WSW 10.3 km/h 15.6 km/h 28 % 0 mm
04:40 -12.7 °C -22.4 °C 34313.7 hPa WSW 10.3 km/h 15.6 km/h 28 % 0 mm
04:45 -12.7 °C -22.5 °C 34313.7 hPa WSW 10.3 km/h 12.9 km/h 28 % 0 mm
04:50 -12.8 °C -22.6 °C 34313.7 hPa West 10.3 km/h 15.6 km/h 28 % 0 mm
04:55 -12.8 °C -22.6 °C 34313.7 hPa West 10.3 km/h 12.9 km/h 28 % 0 mm
05:00 -12.8 °C -22.6 °C 34313.7 hPa West 10.3 km/h 15.6 km/h 28 % 0 mm
05:05 -12.7 °C -22.5 °C 34313.7 hPa West 10.3 km/h 12.9 km/h 28 % 0 mm
05:10 -12.7 °C -22.4 °C 34313.7 hPa WNW 10.3 km/h 15.6 km/h 28 % 0 mm
05:15 -12.8 °C -22.6 °C 34313.7 hPa WSW 7.7 km/h 12.9 km/h 28 % 0 mm
05:20 -12.8 °C -22.6 °C 34313.7 hPa West 7.7 km/h 12.9 km/h 28 % 0 mm
05:25 -12.7 °C -22.5 °C 34313.7 hPa WSW 7.7 km/h 15.6 km/h 28 % 0 mm
05:30 -12.7 °C -22.4 °C 34313.7 hPa WSW 10.3 km/h 12.9 km/h 28 % 0 mm
05:35 -12.8 °C -22.6 °C 34313.7 hPa WSW 7.7 km/h 10.3 km/h 28 % 0 mm
05:40 -12.7 °C -22.5 °C 34313.7 hPa WNW 5.1 km/h 10.3 km/h 28 % 0 mm
05:45 -12.7 °C -22.5 °C 34313.7 hPa WNW 5.1 km/h 10.3 km/h 28 % 0 mm
05:50 -12.8 °C -22.6 °C 34313.7 hPa West 7.7 km/h 10.3 km/h 28 % 0 mm
05:55 -12.7 °C -22.5 °C 34313.7 hPa NW 5.1 km/h 12.9 km/h 28 % 0 mm
06:00 -12.7 °C -22.7 °C 34313.7 hPa WNW 7.7 km/h 10.3 km/h 27 % 0 mm
06:05 -12.6 °C -22.7 °C 34313.7 hPa West 5.1 km/h 12.9 km/h 27 % 0 mm
06:10 -12.6 °C -22.7 °C 34313.7 hPa West 7.7 km/h 7.7 km/h 27 % 0 mm
06:15 -12.6 °C -22.7 °C 34313.7 hPa WNW 10.3 km/h 10.3 km/h 27 % 0 mm
06:20 -12.6 °C -22.7 °C 34313.7 hPa West 7.7 km/h 12.9 km/h 27 % 0 mm
06:25 -12.6 °C -22.7 °C 34313.7 hPa West 7.7 km/h 12.9 km/h 27 % 0 mm
06:30 -12.5 °C -22.6 °C 34313.7 hPa NW 10.3 km/h 12.9 km/h 27 % 0 mm
06:35 -12.6 °C -22.6 °C 34313.7 hPa WNW 10.3 km/h 12.9 km/h 27 % 0 mm
06:40 -12.6 °C -22.7 °C 34313.7 hPa West 10.3 km/h 10.3 km/h 27 % 0 mm
06:45 -12.5 °C -22.6 °C 34313.7 hPa NW 10.3 km/h 12.9 km/h 27 % 0 mm
06:50 -12.5 °C -22.6 °C 34313.7 hPa WNW 10.3 km/h 12.9 km/h 27 % 0 mm
06:55 -12.6 °C -22.6 °C 34313.7 hPa West 10.3 km/h 10.3 km/h 27 % 0 mm
07:00 -12.5 °C -22.6 °C 34313.7 hPa WNW 7.7 km/h 12.9 km/h 27 % 0 mm
07:05 -12.3 °C -22.4 °C 34313.7 hPa NW 7.7 km/h 10.3 km/h 27 % 0 mm
07:10 -12.4 °C -22.4 °C 34313.7 hPa NW 7.7 km/h 10.3 km/h 27 % 0 mm
07:15 -12.3 °C -22.4 °C 34313.7 hPa NW 5.1 km/h 10.3 km/h 27 % 0 mm
07:20 -12 °C -22.4 °C 34313.7 hPa NW 7.7 km/h 10.3 km/h 26 % 0 mm
07:25 -11.8 °C -22.2 °C 34313.7 hPa NW 5.1 km/h 10.3 km/h 26 % 0 mm
07:30 -11.7 °C -22.1 °C 34313.7 hPa NW 5.1 km/h 10.3 km/h 26 % 0 mm
07:35 -11.5 °C -22.8 °C 34313.7 hPa NW 5.1 km/h 7.7 km/h 23 % 0 mm
07:40 -11.3 °C -22.7 °C 34313.7 hPa Calm   7.7 km/h 23 % 0 mm
07:45 -11.2 °C -22.6 °C 34313.7 hPa NW 7.7 km/h 12.9 km/h 23 % 0 mm
07:50 -11 °C -22.4 °C 34269.7 hPa NW 7.7 km/h 10.3 km/h 23 % 0 mm
07:55 -10.7 °C -22.2 °C 34269.7 hPa Calm   7.7 km/h 23 % 0 mm
08:00 -10.5 °C -21.4 °C 34269.7 hPa Calm   7.7 km/h 25 % 0 mm
08:05 -10.4 °C -21.3 °C 34269.7 hPa Calm     25 % 0 mm
08:10 -10.3 °C -21.2 °C 34269.7 hPa Calm     25 % 0 mm
08:15 -10.1 °C -21 °C 34269.7 hPa Calm     25 % 0 mm
08:20 -9.8 °C -21.1 °C 34269.7 hPa Calm     24 % 0 mm
08:25 -9.5 °C -20.8 °C 34269.7 hPa Calm     24 % 0 mm
08:30 -9.2 °C -21.2 °C 34269.7 hPa Calm     22 % 0 mm
08:35 -8.8 °C -21.2 °C 34269.7 hPa Calm     21 % 0 mm
08:40 -8.2 °C -21.8 °C 34269.7 hPa Calm     18 % 0 mm
08:45 -7.8 °C -21.5 °C 34269.7 hPa Calm   10.3 km/h 18 % 0 mm
08:50 -7.6 °C -22.6 °C 34269.7 hPa ENE 7.7 km/h 10.3 km/h 15 % 0 mm
08:55 -7.5 °C -22.6 °C 34269.7 hPa East 5.1 km/h 12.9 km/h 15 % 0 mm
09:00 -7.4 °C -22.6 °C 34269.7 hPa East 10.3 km/h 12.9 km/h 15 % 0 mm
09:05 -7.4 °C -22.6 °C 34269.7 hPa East 10.3 km/h 15.6 km/h 15 % 0 mm
09:10 -7.4 °C -22.5 °C 34269.7 hPa ENE 5.1 km/h 10.3 km/h 15 % 0 mm
09:15 -7.3 °C -22.4 °C 34269.7 hPa East 7.7 km/h 12.9 km/h 15 % 0 mm
09:20 -7.3 °C -22.4 °C 34269.7 hPa East 10.3 km/h 12.9 km/h 15 % 0 mm
09:25 -7.4 °C -22.5 °C 34269.7 hPa ESE 10.3 km/h 15.6 km/h 15 % 0 mm
09:30 -7.5 °C -22.6 °C 34269.7 hPa East 10.3 km/h 12.9 km/h 15 % 0 mm
09:35 -7.4 °C -22.6 °C 34269.7 hPa East 10.3 km/h 15.6 km/h 15 % 0 mm
09:40 -7.4 °C -21.2 °C 34269.7 hPa East 10.3 km/h 15.6 km/h 18 % 0 mm
09:45 -7.4 °C -22.5 °C 34269.7 hPa ENE 12.9 km/h 18.2 km/h 15 % 0 mm
09:50 -7.3 °C -21.1 °C 34256.2 hPa East 10.3 km/h 18.2 km/h 18 % 0 mm
09:55 -7.2 °C -21.4 °C 34256.2 hPa ESE 15.6 km/h 18.2 km/h 17 % 0 mm
10:00 -7.1 °C -22.3 °C 34256.2 hPa East 10.3 km/h 18.2 km/h 15 % 0 mm
10:05 -7 °C -22.2 °C 34256.2 hPa East 12.9 km/h 20.8 km/h 15 % 0 mm
10:10 -7 °C -22.2 °C 34256.2 hPa SE 18.2 km/h 20.8 km/h 15 % 0 mm
10:15 -6.9 °C -21.2 °C 34256.2 hPa ESE 10.3 km/h 20.8 km/h 17 % 0 mm
10:20 -6.9 °C -22.1 °C 34256.2 hPa ESE 10.3 km/h 20.8 km/h 15 % 0 mm
10:25 -6.9 °C -21.2 °C 34256.2 hPa ENE 10.3 km/h 20.8 km/h 17 % 0 mm
10:30 -6.8 °C -21.2 °C 34222.3 hPa ESE 15.6 km/h 20.8 km/h 17 % 0 mm
10:35 -6.9 °C -21.2 °C 34222.3 hPa East 12.9 km/h 25.9 km/h 17 % 0 mm
10:40 -6.9 °C -21.2 °C 34222.3 hPa ESE 18.2 km/h 23.3 km/h 17 % 0 mm
10:45 -7 °C -21.3 °C 34222.3 hPa East 20.8 km/h 23.3 km/h 17 % 0 mm
10:50 -6.9 °C -21.2 °C 34222.3 hPa East 15.6 km/h 20.8 km/h 17 % 0 mm
10:55 -6.9 °C -21.2 °C 34222.3 hPa East 15.6 km/h 23.3 km/h 17 % 0 mm
11:00 -7 °C -21.3 °C 34222.3 hPa ESE 15.6 km/h 25.9 km/h 17 % 0 mm
11:05 -7 °C -21.3 °C 34222.3 hPa East 20.8 km/h 25.9 km/h 17 % 0 mm
11:10 -6.9 °C -21.2 °C 34222.3 hPa ENE 18.2 km/h 20.8 km/h 17 % 0 mm
11:15 -6.9 °C -22.1 °C 34222.3 hPa ESE 20.8 km/h 25.9 km/h 15 % 0 mm
11:20 -6.9 °C -22.1 °C 34222.3 hPa East 20.8 km/h 25.9 km/h 15 % 0 mm
11:25 -6.8 °C -22.1 °C 34222.3 hPa East 18.2 km/h 28.5 km/h 15 % 0 mm
11:30 -6.9 °C -22.1 °C 34222.3 hPa ENE 18.2 km/h 25.9 km/h 15 % 0 mm
11:35 -7 °C -22.2 °C 34222.3 hPa NE 20.8 km/h 25.9 km/h 15 % 0 mm
11:40 -6.9 °C -22.1 °C 34222.3 hPa East 18.2 km/h 25.9 km/h 15 % 0 mm
11:45 -7 °C -22.2 °C 34222.3 hPa East 12.9 km/h 25.9 km/h 15 % 0 mm
11:50 -7.2 °C -22.3 °C 34222.3 hPa East 18.2 km/h 28.5 km/h 15 % 0 mm
11:55 -7.1 °C -22.3 °C 34222.3 hPa ESE 20.8 km/h 25.9 km/h 15 % 0 mm
12:00 -7.1 °C -22.2 °C 34188.4 hPa East 18.2 km/h 25.9 km/h 15 % 0 mm
12:05 -7.2 °C -22.3 °C 34188.4 hPa NE 15.6 km/h 25.9 km/h 15 % 0 mm
12:10 -7.2 °C -22.3 °C 34188.4 hPa East 20.8 km/h 25.9 km/h 15 % 0 mm
12:15 -7.3 °C -22.4 °C 34198.6 hPa ESE 20.8 km/h 25.9 km/h 15 % 0 mm
12:20 -7.2 °C -22.3 °C 34188.4 hPa ENE 15.6 km/h 25.9 km/h 15 % 0 mm
12:25 -7 °C -22.2 °C 34188.4 hPa NE 10.3 km/h 20.8 km/h 15 % 0 mm
12:30 -6.8 °C -22 °C 34188.4 hPa East 15.6 km/h 20.8 km/h 15 % 0 mm
12:35 -6.8 °C -22.1 °C 34188.4 hPa East 23.3 km/h 25.9 km/h 15 % 0 mm
12:40 -6.8 °C -22 °C 34188.4 hPa East 18.2 km/h 25.9 km/h 15 % 0 mm
12:45 -6.7 °C -21.9 °C 34188.4 hPa ENE 15.6 km/h 20.8 km/h 15 % 0 mm
12:50 -6.7 °C -21.9 °C 34188.4 hPa ENE 15.6 km/h 25.9 km/h 15 % 0 mm
12:55 -6.6 °C -21.8 °C 34188.4 hPa East 15.6 km/h 20.8 km/h 15 % 0 mm
13:00 -6.4 °C -21.7 °C 34154.6 hPa ESE 15.6 km/h 20.8 km/h 15 % 0 mm
13:05 -6.5 °C -21.8 °C 34154.6 hPa ESE 18.2 km/h 25.9 km/h 15 % 0 mm
13:10 -6.5 °C -21.8 °C 34154.6 hPa SE 15.6 km/h 20.8 km/h 15 % 0 mm
13:15 -6.6 °C -21.9 °C 34154.6 hPa East 18.2 km/h 25.9 km/h 15 % 0 mm
13:20 -6.7 °C -22 °C 34154.6 hPa NNE 20.8 km/h 25.9 km/h 15 % 0 mm
13:25 -6.6 °C -21.9 °C 34154.6 hPa NNE 15.6 km/h 31.1 km/h 15 % 0 mm
13:30 -6.6 °C -21.9 °C 34154.6 hPa NE 15.6 km/h 25.9 km/h 15 % 0 mm
13:35 -6.6 °C -21.9 °C 34154.6 hPa East 20.8 km/h 23.3 km/h 15 % 0 mm
13:40 -6.7 °C -21.9 °C 34154.6 hPa NE 20.8 km/h 25.9 km/h 15 % 0 mm
13:45 -6.7 °C -22 °C 34120.7 hPa ENE 20.8 km/h 31.1 km/h 15 % 0 mm
13:50 -6.7 °C -21.9 °C 34120.7 hPa NNE 20.8 km/h 33.6 km/h 15 % 0 mm
13:55 -6.7 °C -21.9 °C 34120.7 hPa NNE 25.9 km/h 31.1 km/h 15 % 0 mm
14:00 -6.6 °C -21.9 °C 34120.7 hPa ESE 20.8 km/h 28.5 km/h 15 % 0 mm
14:05 -6.6 °C -21.9 °C 34120.7 hPa ENE 18.2 km/h 28.5 km/h 15 % 0 mm
14:10 -6.7 °C -22 °C 34120.7 hPa NE 18.2 km/h 33.6 km/h 15 % 0 mm
14:15 -6.7 °C -21.9 °C 34120.7 hPa ENE 23.3 km/h 28.5 km/h 15 % 0 mm
14:20 -6.6 °C -21.8 °C 34120.7 hPa East 18.2 km/h 25.9 km/h 15 % 0 mm
14:25 -6.6 °C -21.8 °C 34120.7 hPa East 20.8 km/h 25.9 km/h 15 % 0 mm
14:30 -6.6 °C -21.8 °C 34120.7 hPa East 23.3 km/h 28.5 km/h 15 % 0 mm
14:35 -6.4 °C -21.7 °C 34120.7 hPa ENE 25.9 km/h 25.9 km/h 15 % 0 mm
14:40 -6.3 °C -21.7 °C 34120.7 hPa NE 15.6 km/h 23.3 km/h 15 % 0 mm
14:45 -6.3 °C -21.6 °C 34120.7 hPa ENE 18.2 km/h 25.9 km/h 15 % 0 mm
14:50 -6.2 °C -21.6 °C 34086.9 hPa ENE 18.2 km/h 31.1 km/h 15 % 0 mm
14:55 -6.1 °C -22 °C 34086.9 hPa East 18.2 km/h 25.9 km/h 14 % 0 mm
15:00 -6.1 °C -21.9 °C 34086.9 hPa ESE 15.6 km/h 25.9 km/h 14 % 0 mm
15:05 -6 °C -21.9 °C 34086.9 hPa East 10.3 km/h 20.8 km/h 14 % 0 mm
15:10 -5.9 °C -21.8 °C 34086.9 hPa ESE 10.3 km/h 20.8 km/h 14 % 0 mm
15:15 -6 °C -21.9 °C 34086.9 hPa ESE 15.6 km/h 25.9 km/h 14 % 0 mm
15:20 -6 °C -21.9 °C 34086.9 hPa SE 15.6 km/h 20.8 km/h 14 % 0 mm
15:25 -5.9 °C -21.8 °C 34086.9 hPa ESE 10.3 km/h 20.8 km/h 14 % 0 mm
15:30 -5.9 °C -21.8 °C 34086.9 hPa SE 10.3 km/h 20.8 km/h 14 % 0 mm
15:35 -5.9 °C -21.8 °C 34086.9 hPa South 10.3 km/h 18.2 km/h 14 % 0 mm
15:40 -6 °C -21.9 °C 34086.9 hPa ESE 15.6 km/h 23.3 km/h 14 % 0 mm
15:45 -6.1 °C -21.9 °C 34086.9 hPa ESE 12.9 km/h 25.9 km/h 14 % 0 mm
15:50 -6.1 °C -22 °C 34086.9 hPa ESE 15.6 km/h 25.9 km/h 14 % 0 mm
15:55 -6.1 °C -22 °C 34086.9 hPa SE 12.9 km/h 20.8 km/h 14 % 0 mm
16:00 -6 °C -21.9 °C 34086.9 hPa East 12.9 km/h 20.8 km/h 14 % 0 mm
16:05 -6.2 °C -21.5 °C 34086.9 hPa NE 18.2 km/h 23.3 km/h 15 % 0 mm
16:10 -6.3 °C -21.7 °C 34086.9 hPa NE 10.3 km/h 20.8 km/h 15 % 0 mm
16:15 -6.4 °C -21.7 °C 34049.6 hPa ENE 18.2 km/h 25.9 km/h 15 % 0 mm
16:20 -6.5 °C -21.8 °C 34049.6 hPa ENE 20.8 km/h 25.9 km/h 15 % 0 mm
16:25 -6.6 °C -21.9 °C 34049.6 hPa East 20.8 km/h 28.5 km/h 15 % 0 mm
16:30 -6.8 °C -22 °C 34049.6 hPa ENE 18.2 km/h 25.9 km/h 15 % 0 mm
16:35 -6.8 °C -22.1 °C 34049.6 hPa ESE 20.8 km/h 25.9 km/h 15 % 0 mm
16:40 -6.9 °C -22.1 °C 34049.6 hPa ENE 18.2 km/h 25.9 km/h 15 % 0 mm
16:45 -7 °C -22.2 °C 34049.6 hPa NE 18.2 km/h 31.1 km/h 15 % 0 mm
16:50 -7.1 °C -22.2 °C 34049.6 hPa ENE 18.2 km/h 20.8 km/h 15 % 0 mm
16:55 -7.2 °C -22.3 °C 34049.6 hPa ENE 20.8 km/h 25.9 km/h 15 % 0 mm
17:00 -7.3 °C -22.4 °C 34063.2 hPa East 15.6 km/h 20.8 km/h 15 % 0 mm
17:05 -7.4 °C -22.5 °C 34063.2 hPa ESE 12.9 km/h 20.8 km/h 15 % 0 mm
17:10 -7.4 °C -22.6 °C 34063.2 hPa NE 18.2 km/h 20.8 km/h 15 % 0 mm
17:15 -7.4 °C -22.6 °C 34063.2 hPa NNE 10.3 km/h 18.2 km/h 15 % 0 mm
17:20 -7.4 °C -22.6 °C 34063.2 hPa NE 15.6 km/h 20.8 km/h 15 % 0 mm
17:25 -7.5 °C -22.6 °C 34063.2 hPa NE 10.3 km/h 18.2 km/h 15 % 0 mm
17:30 -7.6 °C -22.6 °C 34063.2 hPa NE 10.3 km/h 18.2 km/h 15 % 0 mm
17:35 -7.6 °C -22.7 °C 34063.2 hPa NNE 10.3 km/h 15.6 km/h 15 % 0 mm
17:40 -7.7 °C -22.7 °C 34063.2 hPa NE 5.1 km/h 15.6 km/h 15 % 0 mm
17:45 -7.7 °C -22.7 °C 34063.2 hPa NE 5.1 km/h 10.3 km/h 15 % 0 mm
17:50 -7.8 °C -22.4 °C 34063.2 hPa NE 5.1 km/h 10.3 km/h 16 % 0 mm
17:55 -7.9 °C -22.4 °C 34063.2 hPa Calm   10.3 km/h 16 % 0 mm
18:00 -8.1 °C -22.6 °C 34063.2 hPa Calm   10.3 km/h 16 % 0 mm
18:05 -8.2 °C -22.7 °C 34063.2 hPa Calm   5.1 km/h 16 % 0 mm
18:10 -8.3 °C -22.7 °C 34063.2 hPa North 5.1 km/h 7.7 km/h 16 % 0 mm
18:15 -8.4 °C -22.8 °C 34063.2 hPa Calm   7.7 km/h 16 % 0 mm
18:20 -8.5 °C -22.9 °C 34063.2 hPa Calm     16 % 0 mm
18:25 -8.6 °C -22.9 °C 34063.2 hPa Calm     16 % 0 mm
18:30 -8.7 °C -23.1 °C 34063.2 hPa Calm   7.7 km/h 16 % 0 mm
18:35 -8.8 °C -23.2 °C 34063.2 hPa Calm   5.1 km/h 16 % 0 mm
18:40 -8.9 °C -22.9 °C 34063.2 hPa Calm   5.1 km/h 17 % 0 mm
18:45 -9.3 °C -23.2 °C 34063.2 hPa NW 5.1 km/h 10.3 km/h 17 % 0 mm
18:50 -9.6 °C -23.4 °C 34063.2 hPa Calm   7.7 km/h 17 % 0 mm
18:55 -9.8 °C -23.6 °C 34063.2 hPa NW 5.1 km/h 10.3 km/h 17 % 0 mm
19:00 -10 °C -23.7 °C 34063.2 hPa NNW 5.1 km/h 7.7 km/h 17 % 0 mm
19:05 -10.2 °C -22.7 °C 34063.2 hPa NNW 10.3 km/h 15.6 km/h 20 % 0 mm
19:10 -10.5 °C -23 °C 34063.2 hPa WNW 7.7 km/h 12.9 km/h 20 % 0 mm
19:15 -10.7 °C -23.1 °C 34063.2 hPa NNW 12.9 km/h 12.9 km/h 20 % 0 mm
19:20 -10.8 °C -22.2 °C 34063.2 hPa NW 12.9 km/h 20.8 km/h 23 % 0 mm
19:25 -10.9 °C -22.3 °C 34063.2 hPa NW 12.9 km/h 15.6 km/h 23 % 0 mm
19:30 -11 °C -22.4 °C 34073.3 hPa NNW 7.7 km/h 15.6 km/h 23 % 0 mm
19:35 -10.9 °C -21.8 °C 34063.2 hPa NW 10.3 km/h 12.9 km/h 25 % 0 mm
19:40 -10.9 °C -21.8 °C 34063.2 hPa NNW 5.1 km/h 12.9 km/h 25 % 0 mm
19:45 -11 °C -21.8 °C 34073.3 hPa NNW 7.7 km/h 12.9 km/h 25 % 0 mm
19:50 -10.9 °C -22.3 °C 34063.2 hPa NNW 7.7 km/h 10.3 km/h 23 % 0 mm
19:55 -11 °C -22.4 °C 34073.3 hPa NW 5.1 km/h 12.9 km/h 23 % 0 mm
20:00 -11.2 °C -21.7 °C 34073.3 hPa NNW 7.7 km/h 12.9 km/h 26 % 0 mm
20:05 -11.3 °C -21.8 °C 34073.3 hPa NW 12.9 km/h 18.2 km/h 26 % 0 mm
20:10 -11.4 °C -21.9 °C 34073.3 hPa NNW 10.3 km/h 15.6 km/h 26 % 0 mm
20:15 -11.3 °C -21.8 °C 34073.3 hPa North 10.3 km/h 12.9 km/h 26 % 0 mm
20:20 -11.4 °C -21.6 °C 34073.3 hPa North 7.7 km/h 10.3 km/h 27 % 0 mm
20:25 -11.5 °C -22 °C 34073.3 hPa North 12.9 km/h 20.8 km/h 26 % 0 mm
20:30 -11.6 °C -22 °C 34073.3 hPa NNW 12.9 km/h 20.8 km/h 26 % 0 mm
20:35 -11.7 °C -21.8 °C 34073.3 hPa NW 12.9 km/h 15.6 km/h 27 % 0 mm
20:40 -11.8 °C -21.7 °C 34073.3 hPa NW 5.1 km/h 15.6 km/h 28 % 0 mm
20:45 -11.8 °C -21.7 °C 34073.3 hPa NNW 7.7 km/h 10.3 km/h 28 % 0 mm
20:50 -11.7 °C -21.9 °C 34073.3 hPa NNW 10.3 km/h 15.6 km/h 27 % 0 mm
20:55 -12.1 °C -21.4 °C 34073.3 hPa NNW 10.3 km/h 15.6 km/h 30 % 0 mm
21:00 -12.1 °C -21 °C 34073.3 hPa Calm   10.3 km/h 32 % 0 mm
21:05 -12.1 °C -21.7 °C 34073.3 hPa NW 12.9 km/h 18.2 km/h 29 % 0 mm
21:10 -12 °C -21.6 °C 34073.3 hPa NW 12.9 km/h 20.8 km/h 29 % 0 mm
21:15 -12.2 °C -21.8 °C 34073.3 hPa NNW 12.9 km/h 18.2 km/h 29 % 0 mm
21:20 -12.3 °C -21.4 °C 34073.3 hPa WNW 15.6 km/h 20.8 km/h 31 % 0 mm
21:25 -12.3 °C -21.4 °C 34073.3 hPa WNW 10.3 km/h 20.8 km/h 31 % 0 mm
21:30 -12.4 °C -21.3 °C 34073.3 hPa NW 12.9 km/h 18.2 km/h 32 % 0 mm
21:35 -12.6 °C -21.2 °C 34073.3 hPa NW 12.9 km/h 18.2 km/h 33 % 0 mm
Stazione meteorologica di Castelnuovo Vomano (TE)
complimenti di Weather Underground - 3.75 mb

Script sviluppato da  Jim McMurry - jmcmurry@mwt.net Adattato per il modello da  Wim van der Kuil - Leuven-Template.eu

Potete trovare le nostre info meteo anche a:

Weather Underground

AWEKAS

Citizen Weather Observer Program (CWOP)

HAMweather, WeatherForYou, PWS Weather

Strumentazione usata:

Stazione meteo
Oregon 928

Programma gestore dati meteo
WVIEW

Server per i dati meteo
Pc-WDS5

Oregon 928

WVIEW

Pc-WDS5